sensor_id;sensor_type;location;lat;lon;timestamp;pressure;altitude;pressure_sealevel;temperature
56286;BMP180;42191;47.562;9.686;2023-02-28T00:01:20;97057.00;;;3.00
56286;BMP180;42191;47.562;9.686;2023-02-28T00:03:46;97059.00;;;3.00
56286;BMP180;42191;47.562;9.686;2023-02-28T00:06:12;97066.00;;;3.00
56286;BMP180;42191;47.562;9.686;2023-02-28T00:08:39;97068.00;;;3.00
56286;BMP180;42191;47.562;9.686;2023-02-28T00:11:11;97065.00;;;3.00
56286;BMP180;42191;47.562;9.686;2023-02-28T00:13:41;97062.00;;;3.00
56286;BMP180;42191;47.562;9.686;2023-02-28T00:16:10;97055.00;;;3.00
56286;BMP180;42191;47.562;9.686;2023-02-28T00:18:37;97065.00;;;2.90
56286;BMP180;42191;47.562;9.686;2023-02-28T00:21:05;97067.00;;;2.90
56286;BMP180;42191;47.562;9.686;2023-02-28T00:23:31;97063.00;;;2.90
56286;BMP180;42191;47.562;9.686;2023-02-28T00:25:57;97077.00;;;2.90
56286;BMP180;42191;47.562;9.686;2023-02-28T00:28:23;97059.00;;;2.90
56286;BMP180;42191;47.562;9.686;2023-02-28T00:30:50;97067.00;;;2.90
56286;BMP180;42191;47.562;9.686;2023-02-28T00:33:16;97053.00;;;2.90
56286;BMP180;42191;47.562;9.686;2023-02-28T00:35:42;97063.00;;;2.90
56286;BMP180;42191;47.562;9.686;2023-02-28T00:38:09;97066.00;;;2.90
56286;BMP180;42191;47.562;9.686;2023-02-28T00:40:35;97081.00;;;2.90
56286;BMP180;42191;47.562;9.686;2023-02-28T00:43:02;97053.00;;;2.90
56286;BMP180;42191;47.562;9.686;2023-02-28T00:45:29;97050.00;;;2.90
56286;BMP180;42191;47.562;9.686;2023-02-28T00:47:55;97052.00;;;2.90
56286;BMP180;42191;47.562;9.686;2023-02-28T00:50:21;97046.00;;;3.00
56286;BMP180;42191;47.562;9.686;2023-02-28T00:52:47;97050.00;;;3.00
56286;BMP180;42191;47.562;9.686;2023-02-28T00:55:14;97049.00;;;3.00
56286;BMP180;42191;47.562;9.686;2023-02-28T00:57:40;97046.00;;;3.00
56286;BMP180;42191;47.562;9.686;2023-02-28T01:00:07;97053.00;;;3.00
56286;BMP180;42191;47.562;9.686;2023-02-28T01:02:34;97046.00;;;3.00
56286;BMP180;42191;47.562;9.686;2023-02-28T01:05:00;97046.00;;;3.00
56286;BMP180;42191;47.562;9.686;2023-02-28T01:07:26;97053.00;;;3.10
56286;BMP180;42191;47.562;9.686;2023-02-28T01:09:52;97050.00;;;3.10
56286;BMP180;42191;47.562;9.686;2023-02-28T01:12:18;97046.00;;;3.10
56286;BMP180;42191;47.562;9.686;2023-02-28T01:14:44;97059.00;;;3.10
56286;BMP180;42191;47.562;9.686;2023-02-28T01:17:11;97053.00;;;3.10
56286;BMP180;42191;47.562;9.686;2023-02-28T01:19:37;97059.00;;;3.10
56286;BMP180;42191;47.562;9.686;2023-02-28T01:22:04;97054.00;;;3.10
56286;BMP180;42191;47.562;9.686;2023-02-28T01:24:31;97058.00;;;3.10
56286;BMP180;42191;47.562;9.686;2023-02-28T01:26:57;97052.00;;;3.10
56286;BMP180;42191;47.562;9.686;2023-02-28T01:29:23;97063.00;;;3.20
56286;BMP180;42191;47.562;9.686;2023-02-28T01:31:49;97065.00;;;3.20
56286;BMP180;42191;47.562;9.686;2023-02-28T01:34:16;97069.00;;;3.20
56286;BMP180;42191;47.562;9.686;2023-02-28T01:36:44;97060.00;;;3.10
56286;BMP180;42191;47.562;9.686;2023-02-28T01:39:11;97058.00;;;3.10
56286;BMP180;42191;47.562;9.686;2023-02-28T01:41:38;97064.00;;;3.10
56286;BMP180;42191;47.562;9.686;2023-02-28T01:44:53;97060.00;;;3.10
56286;BMP180;42191;47.562;9.686;2023-02-28T01:46:52;97049.00;;;3.10
56286;BMP180;42191;47.562;9.686;2023-02-28T01:49:19;97044.00;;;3.00
56286;BMP180;42191;47.562;9.686;2023-02-28T01:51:55;97049.00;;;3.00
56286;BMP180;42191;47.562;9.686;2023-02-28T01:54:26;97046.00;;;3.00
56286;BMP180;42191;47.562;9.686;2023-02-28T01:56:57;97054.00;;;2.90
56286;BMP180;42191;47.562;9.686;2023-02-28T01:59:37;97049.00;;;2.90
56286;BMP180;42191;47.562;9.686;2023-02-28T02:02:10;97054.00;;;2.80
56286;BMP180;42191;47.562;9.686;2023-02-28T02:04:45;97047.00;;;2.80
56286;BMP180;42191;47.562;9.686;2023-02-28T02:07:14;97057.00;;;2.80
56286;BMP180;42191;47.562;9.686;2023-02-28T02:09:41;97045.00;;;2.70
56286;BMP180;42191;47.562;9.686;2023-02-28T02:12:31;97048.00;;;2.70
56286;BMP180;42191;47.562;9.686;2023-02-28T02:15:16;97052.00;;;2.70
56286;BMP180;42191;47.562;9.686;2023-02-28T02:17:49;97041.00;;;2.70
56286;BMP180;42191;47.562;9.686;2023-02-28T02:23:09;97048.00;;;2.60
56286;BMP180;42191;47.562;9.686;2023-02-28T02:25:52;97037.00;;;2.60
56286;BMP180;42191;47.562;9.686;2023-02-28T02:42:11;97045.00;;;2.60
56286;BMP180;42191;47.562;9.686;2023-02-28T02:44:47;97051.00;;;2.50
56286;BMP180;42191;47.562;9.686;2023-02-28T02:47:19;97054.00;;;2.60
56286;BMP180;42191;47.562;9.686;2023-02-28T02:49:47;97052.00;;;2.50
56286;BMP180;42191;47.562;9.686;2023-02-28T02:52:17;97059.00;;;2.50
56286;BMP180;42191;47.562;9.686;2023-02-28T02:54:46;97051.00;;;2.50
56286;BMP180;42191;47.562;9.686;2023-02-28T02:57:34;97042.00;;;2.50
56286;BMP180;42191;47.562;9.686;2023-02-28T03:00:04;97052.00;;;2.40
56286;BMP180;42191;47.562;9.686;2023-02-28T03:02:35;97044.00;;;2.40
56286;BMP180;42191;47.562;9.686;2023-02-28T03:05:20;97052.00;;;2.40
56286;BMP180;42191;47.562;9.686;2023-02-28T03:07:47;97053.00;;;2.40
56286;BMP180;42191;47.562;9.686;2023-02-28T03:10:39;97051.00;;;2.40
56286;BMP180;42191;47.562;9.686;2023-02-28T03:18:48;97057.00;;;2.30
56286;BMP180;42191;47.562;9.686;2023-02-28T03:21:20;97050.00;;;2.30
56286;BMP180;42191;47.562;9.686;2023-02-28T03:24:04;97065.00;;;2.20
56286;BMP180;42191;47.562;9.686;2023-02-28T03:26:34;97057.00;;;2.20
56286;BMP180;42191;47.562;9.686;2023-02-28T03:29:35;97059.00;;;2.20
56286;BMP180;42191;47.562;9.686;2023-02-28T03:32:21;97063.00;;;2.20
56286;BMP180;42191;47.562;9.686;2023-02-28T03:35:01;97071.00;;;2.20
56286;BMP180;42191;47.562;9.686;2023-02-28T03:37:31;97060.00;;;2.20
56286;BMP180;42191;47.562;9.686;2023-02-28T03:40:10;97058.00;;;2.20
56286;BMP180;42191;47.562;9.686;2023-02-28T03:42:44;97066.00;;;2.20
56286;BMP180;42191;47.562;9.686;2023-02-28T03:45:23;97066.00;;;2.20
56286;BMP180;42191;47.562;9.686;2023-02-28T03:48:03;97067.00;;;2.20
56286;BMP180;42191;47.562;9.686;2023-02-28T03:50:39;97082.00;;;2.20
56286;BMP180;42191;47.562;9.686;2023-02-28T03:53:25;97079.00;;;2.20
56286;BMP180;42191;47.562;9.686;2023-02-28T03:58:57;97072.00;;;2.20
56286;BMP180;42191;47.562;9.686;2023-02-28T04:01:33;97070.00;;;2.20
56286;BMP180;42191;47.562;9.686;2023-02-28T04:04:01;97069.00;;;2.20
56286;BMP180;42191;47.562;9.686;2023-02-28T04:06:29;97074.00;;;2.20
56286;BMP180;42191;47.562;9.686;2023-02-28T04:08:56;97061.00;;;2.20
56286;BMP180;42191;47.562;9.686;2023-02-28T04:13:56;97077.00;;;2.20
56286;BMP180;42191;47.562;9.686;2023-02-28T04:16:25;97077.00;;;2.30
56286;BMP180;42191;47.562;9.686;2023-02-28T04:18:53;97079.00;;;2.30
56286;BMP180;42191;47.562;9.686;2023-02-28T04:21:20;97073.00;;;2.30
56286;BMP180;42191;47.562;9.686;2023-02-28T04:23:46;97076.00;;;2.30
56286;BMP180;42191;47.562;9.686;2023-02-28T04:26:13;97082.00;;;2.30
56286;BMP180;42191;47.562;9.686;2023-02-28T04:28:39;97081.00;;;2.30
56286;BMP180;42191;47.562;9.686;2023-02-28T04:31:05;97082.00;;;2.30
56286;BMP180;42191;47.562;9.686;2023-02-28T04:33:32;97084.00;;;2.40
56286;BMP180;42191;47.562;9.686;2023-02-28T04:36:07;97075.00;;;2.30
56286;BMP180;42191;47.562;9.686;2023-02-28T04:38:36;97078.00;;;2.40
56286;BMP180;42191;47.562;9.686;2023-02-28T04:41:02;97078.00;;;2.40
56286;BMP180;42191;47.562;9.686;2023-02-28T04:43:29;97091.00;;;2.40
56286;BMP180;42191;47.562;9.686;2023-02-28T04:45:56;97084.00;;;2.40
56286;BMP180;42191;47.562;9.686;2023-02-28T04:48:24;97088.00;;;2.40
56286;BMP180;42191;47.562;9.686;2023-02-28T04:50:50;97089.00;;;2.40
56286;BMP180;42191;47.562;9.686;2023-02-28T04:53:17;97087.00;;;2.40
56286;BMP180;42191;47.562;9.686;2023-02-28T04:55:44;97090.00;;;2.40
56286;BMP180;42191;47.562;9.686;2023-02-28T04:58:10;97089.00;;;2.50
56286;BMP180;42191;47.562;9.686;2023-02-28T05:00:36;97087.00;;;2.50
56286;BMP180;42191;47.562;9.686;2023-02-28T05:03:03;97082.00;;;2.50
56286;BMP180;42191;47.562;9.686;2023-02-28T05:05:29;97097.00;;;2.50
56286;BMP180;42191;47.562;9.686;2023-02-28T05:07:55;97090.00;;;2.40
56286;BMP180;42191;47.562;9.686;2023-02-28T05:10:22;97091.00;;;2.50
56286;BMP180;42191;47.562;9.686;2023-02-28T05:12:49;97091.00;;;2.40
56286;BMP180;42191;47.562;9.686;2023-02-28T05:15:16;97094.00;;;2.40
56286;BMP180;42191;47.562;9.686;2023-02-28T05:17:43;97086.00;;;2.40
56286;BMP180;42191;47.562;9.686;2023-02-28T05:20:10;97098.00;;;2.40
56286;BMP180;42191;47.562;9.686;2023-02-28T05:22:37;97097.00;;;2.40
56286;BMP180;42191;47.562;9.686;2023-02-28T05:25:04;97100.00;;;2.40
56286;BMP180;42191;47.562;9.686;2023-02-28T05:27:33;97099.00;;;2.40
56286;BMP180;42191;47.562;9.686;2023-02-28T05:29:59;97108.00;;;2.40
56286;BMP180;42191;47.562;9.686;2023-02-28T05:32:28;97103.00;;;2.40
56286;BMP180;42191;47.562;9.686;2023-02-28T05:34:54;97100.00;;;2.40
56286;BMP180;42191;47.562;9.686;2023-02-28T05:37:23;97103.00;;;2.40
56286;BMP180;42191;47.562;9.686;2023-02-28T05:39:49;97091.00;;;2.40
56286;BMP180;42191;47.562;9.686;2023-02-28T05:42:15;97093.00;;;2.40
56286;BMP180;42191;47.562;9.686;2023-02-28T05:44:41;97103.00;;;2.40
56286;BMP180;42191;47.562;9.686;2023-02-28T05:47:07;97101.00;;;2.30
56286;BMP180;42191;47.562;9.686;2023-02-28T05:49:37;97101.00;;;2.30
56286;BMP180;42191;47.562;9.686;2023-02-28T05:52:03;97104.00;;;2.30
56286;BMP180;42191;47.562;9.686;2023-02-28T05:54:34;97108.00;;;2.30
56286;BMP180;42191;47.562;9.686;2023-02-28T05:57:00;97109.00;;;2.30
56286;BMP180;42191;47.562;9.686;2023-02-28T05:59:26;97107.00;;;2.30
56286;BMP180;42191;47.562;9.686;2023-02-28T06:01:53;97108.00;;;2.30
56286;BMP180;42191;47.562;9.686;2023-02-28T06:04:20;97117.00;;;2.30
56286;BMP180;42191;47.562;9.686;2023-02-28T06:06:47;97114.00;;;2.20
56286;BMP180;42191;47.562;9.686;2023-02-28T06:09:31;97115.00;;;2.20
56286;BMP180;42191;47.562;9.686;2023-02-28T06:12:16;97115.00;;;2.20
56286;BMP180;42191;47.562;9.686;2023-02-28T06:14:43;97124.00;;;2.20
56286;BMP180;42191;47.562;9.686;2023-02-28T06:17:12;97110.00;;;2.10
56286;BMP180;42191;47.562;9.686;2023-02-28T06:19:39;97119.00;;;2.10
56286;BMP180;42191;47.562;9.686;2023-02-28T06:22:07;97128.00;;;2.10
56286;BMP180;42191;47.562;9.686;2023-02-28T06:24:46;97133.00;;;2.10
56286;BMP180;42191;47.562;9.686;2023-02-28T06:27:32;97141.00;;;2.10
56286;BMP180;42191;47.562;9.686;2023-02-28T06:29:58;97144.00;;;2.10
56286;BMP180;42191;47.562;9.686;2023-02-28T06:32:25;97158.00;;;2.10
56286;BMP180;42191;47.562;9.686;2023-02-28T06:34:51;97150.00;;;2.10
56286;BMP180;42191;47.562;9.686;2023-02-28T06:37:18;97161.00;;;2.00
56286;BMP180;42191;47.562;9.686;2023-02-28T06:39:44;97153.00;;;2.00
56286;BMP180;42191;47.562;9.686;2023-02-28T06:42:10;97169.00;;;2.00
56286;BMP180;42191;47.562;9.686;2023-02-28T06:44:36;97170.00;;;2.10
56286;BMP180;42191;47.562;9.686;2023-02-28T06:47:05;97183.00;;;2.10
56286;BMP180;42191;47.562;9.686;2023-02-28T06:49:32;97173.00;;;2.10
56286;BMP180;42191;47.562;9.686;2023-02-28T06:51:59;97175.00;;;2.10
56286;BMP180;42191;47.562;9.686;2023-02-28T06:54:25;97170.00;;;2.20
56286;BMP180;42191;47.562;9.686;2023-02-28T06:56:51;97168.00;;;2.20
56286;BMP180;42191;47.562;9.686;2023-02-28T06:59:17;97175.00;;;2.30
56286;BMP180;42191;47.562;9.686;2023-02-28T07:01:43;97175.00;;;2.30
56286;BMP180;42191;47.562;9.686;2023-02-28T07:04:10;97188.00;;;2.40
56286;BMP180;42191;47.562;9.686;2023-02-28T07:06:36;97185.00;;;2.50
56286;BMP180;42191;47.562;9.686;2023-02-28T07:09:02;97190.00;;;2.50
56286;BMP180;42191;47.562;9.686;2023-02-28T07:11:29;97192.00;;;2.60
56286;BMP180;42191;47.562;9.686;2023-02-28T07:13:56;97197.00;;;2.70
56286;BMP180;42191;47.562;9.686;2023-02-28T07:16:23;97199.00;;;2.80
56286;BMP180;42191;47.562;9.686;2023-02-28T07:18:51;97201.00;;;2.90
56286;BMP180;42191;47.562;9.686;2023-02-28T07:21:18;97200.00;;;3.00
56286;BMP180;42191;47.562;9.686;2023-02-28T07:23:44;97209.00;;;3.10
56286;BMP180;42191;47.562;9.686;2023-02-28T07:26:13;97200.00;;;3.20
56286;BMP180;42191;47.562;9.686;2023-02-28T07:28:41;97205.00;;;3.30
56286;BMP180;42191;47.562;9.686;2023-02-28T07:31:09;97194.00;;;3.40
56286;BMP180;42191;47.562;9.686;2023-02-28T07:33:36;97202.00;;;3.50
56286;BMP180;42191;47.562;9.686;2023-02-28T07:36:05;97199.00;;;3.60
56286;BMP180;42191;47.562;9.686;2023-02-28T07:38:34;97206.00;;;3.70
56286;BMP180;42191;47.562;9.686;2023-02-28T07:41:01;97208.00;;;3.80
56286;BMP180;42191;47.562;9.686;2023-02-28T07:43:30;97203.00;;;3.90
56286;BMP180;42191;47.562;9.686;2023-02-28T07:46:05;97212.00;;;4.00
56286;BMP180;42191;47.562;9.686;2023-02-28T07:48:32;97213.00;;;4.00
56286;BMP180;42191;47.562;9.686;2023-02-28T07:50:59;97217.00;;;4.10
56286;BMP180;42191;47.562;9.686;2023-02-28T07:53:26;97218.00;;;4.20
56286;BMP180;42191;47.562;9.686;2023-02-28T07:55:56;97222.00;;;4.30
56286;BMP180;42191;47.562;9.686;2023-02-28T07:58:22;97213.00;;;4.30
56286;BMP180;42191;47.562;9.686;2023-02-28T08:00:48;97229.00;;;4.40
56286;BMP180;42191;47.562;9.686;2023-02-28T08:03:14;97208.00;;;4.50
56286;BMP180;42191;47.562;9.686;2023-02-28T08:05:41;97227.00;;;4.50
56286;BMP180;42191;47.562;9.686;2023-02-28T08:08:07;97231.00;;;4.60
56286;BMP180;42191;47.562;9.686;2023-02-28T08:10:34;97231.00;;;4.70
56286;BMP180;42191;47.562;9.686;2023-02-28T08:13:00;97236.00;;;4.80
56286;BMP180;42191;47.562;9.686;2023-02-28T08:15:48;97228.00;;;4.80
56286;BMP180;42191;47.562;9.686;2023-02-28T08:18:13;97232.00;;;4.90
56286;BMP180;42191;47.562;9.686;2023-02-28T08:20:39;97232.00;;;5.00
56286;BMP180;42191;47.562;9.686;2023-02-28T08:23:05;97243.00;;;5.00
56286;BMP180;42191;47.562;9.686;2023-02-28T08:25:31;97243.00;;;5.20
56286;BMP180;42191;47.562;9.686;2023-02-28T08:27:57;97242.00;;;5.20
56286;BMP180;42191;47.562;9.686;2023-02-28T08:30:23;97237.00;;;5.30
56286;BMP180;42191;47.562;9.686;2023-02-28T08:32:49;97253.00;;;5.40
56286;BMP180;42191;47.562;9.686;2023-02-28T08:35:15;97239.00;;;5.50
56286;BMP180;42191;47.562;9.686;2023-02-28T08:37:42;97247.00;;;5.50
56286;BMP180;42191;47.562;9.686;2023-02-28T08:40:08;97249.00;;;5.60
56286;BMP180;42191;47.562;9.686;2023-02-28T08:42:35;97249.00;;;5.60
56286;BMP180;42191;47.562;9.686;2023-02-28T08:45:01;97252.00;;;5.70
56286;BMP180;42191;47.562;9.686;2023-02-28T08:47:27;97257.00;;;5.80
56286;BMP180;42191;47.562;9.686;2023-02-28T08:49:54;97253.00;;;5.90
56286;BMP180;42191;47.562;9.686;2023-02-28T08:52:20;97246.00;;;6.00
56286;BMP180;42191;47.562;9.686;2023-02-28T08:54:46;97254.00;;;6.00
56286;BMP180;42191;47.562;9.686;2023-02-28T08:57:12;97254.00;;;6.10
56286;BMP180;42191;47.562;9.686;2023-02-28T08:59:38;97248.00;;;6.20
56286;BMP180;42191;47.562;9.686;2023-02-28T09:02:04;97253.00;;;6.20
56286;BMP180;42191;47.562;9.686;2023-02-28T09:04:30;97248.00;;;6.30
56286;BMP180;42191;47.562;9.686;2023-02-28T09:06:56;97256.00;;;6.30
56286;BMP180;42191;47.562;9.686;2023-02-28T09:09:22;97258.00;;;6.40
56286;BMP180;42191;47.562;9.686;2023-02-28T09:11:48;97246.00;;;6.40
56286;BMP180;42191;47.562;9.686;2023-02-28T09:14:14;97244.00;;;6.50
56286;BMP180;42191;47.562;9.686;2023-02-28T09:16:43;97249.00;;;6.40
56286;BMP180;42191;47.562;9.686;2023-02-28T09:19:11;97257.00;;;6.40
56286;BMP180;42191;47.562;9.686;2023-02-28T09:21:38;97256.00;;;6.40
56286;BMP180;42191;47.562;9.686;2023-02-28T09:24:04;97267.00;;;6.40
56286;BMP180;42191;47.562;9.686;2023-02-28T09:26:30;97271.00;;;6.50
56286;BMP180;42191;47.562;9.686;2023-02-28T09:28:57;97274.00;;;6.50
56286;BMP180;42191;47.562;9.686;2023-02-28T09:31:26;97275.00;;;6.50
56286;BMP180;42191;47.562;9.686;2023-02-28T09:33:55;97277.00;;;6.60
56286;BMP180;42191;47.562;9.686;2023-02-28T09:36:23;97270.00;;;6.60
56286;BMP180;42191;47.562;9.686;2023-02-28T09:38:49;97277.00;;;6.60
56286;BMP180;42191;47.562;9.686;2023-02-28T09:41:21;97265.00;;;6.70
56286;BMP180;42191;47.562;9.686;2023-02-28T09:43:51;97271.00;;;6.70
56286;BMP180;42191;47.562;9.686;2023-02-28T09:46:48;97270.00;;;6.70
56286;BMP180;42191;47.562;9.686;2023-02-28T09:49:19;97274.00;;;6.70
56286;BMP180;42191;47.562;9.686;2023-02-28T09:51:51;97273.00;;;6.70
56286;BMP180;42191;47.562;9.686;2023-02-28T09:54:21;97260.00;;;6.80
56286;BMP180;42191;47.562;9.686;2023-02-28T09:59:47;97274.00;;;6.80
56286;BMP180;42191;47.562;9.686;2023-02-28T10:05:18;97264.00;;;6.80
56286;BMP180;42191;47.562;9.686;2023-02-28T10:10:36;97269.00;;;6.80
56286;BMP180;42191;47.562;9.686;2023-02-28T10:15:50;97278.00;;;6.80
56286;BMP180;42191;47.562;9.686;2023-02-28T10:19:22;97282.00;;;6.90
56286;BMP180;42191;47.562;9.686;2023-02-28T10:21:34;97284.00;;;6.90
56286;BMP180;42191;47.562;9.686;2023-02-28T10:24:23;97284.00;;;6.90
56286;BMP180;42191;47.562;9.686;2023-02-28T10:26:53;97281.00;;;7.00
56286;BMP180;42191;47.562;9.686;2023-02-28T10:29:22;97285.00;;;7.10
56286;BMP180;42191;47.562;9.686;2023-02-28T10:31:48;97298.00;;;7.20
56286;BMP180;42191;47.562;9.686;2023-02-28T10:34:15;97296.00;;;7.30
56286;BMP180;42191;47.562;9.686;2023-02-28T10:36:42;97294.00;;;7.40
56286;BMP180;42191;47.562;9.686;2023-02-28T10:42:29;97301.00;;;7.50
56286;BMP180;42191;47.562;9.686;2023-02-28T10:45:06;97283.00;;;7.40
56286;BMP180;42191;47.562;9.686;2023-02-28T10:47:34;97281.00;;;7.40
56286;BMP180;42191;47.562;9.686;2023-02-28T10:50:02;97277.00;;;7.30
56286;BMP180;42191;47.562;9.686;2023-02-28T10:52:40;97292.00;;;7.40
56286;BMP180;42191;47.562;9.686;2023-02-28T10:55:21;97280.00;;;7.40
56286;BMP180;42191;47.562;9.686;2023-02-28T10:57:48;97284.00;;;7.50
56286;BMP180;42191;47.562;9.686;2023-02-28T11:02:43;97276.00;;;7.60
56286;BMP180;42191;47.562;9.686;2023-02-28T11:05:28;97278.00;;;7.70
56286;BMP180;42191;47.562;9.686;2023-02-28T11:07:56;97282.00;;;7.70
56286;BMP180;42191;47.562;9.686;2023-02-28T11:10:26;97288.00;;;7.70
56286;BMP180;42191;47.562;9.686;2023-02-28T11:12:56;97282.00;;;7.80
56286;BMP180;42191;47.562;9.686;2023-02-28T11:15:30;97276.00;;;7.80
56286;BMP180;42191;47.562;9.686;2023-02-28T11:20:39;97274.00;;;7.80
56286;BMP180;42191;47.562;9.686;2023-02-28T11:23:06;97274.00;;;7.80
56286;BMP180;42191;47.562;9.686;2023-02-28T11:25:38;97275.00;;;7.80
56286;BMP180;42191;47.562;9.686;2023-02-28T11:28:08;97274.00;;;7.80
56286;BMP180;42191;47.562;9.686;2023-02-28T11:33:53;97269.00;;;7.80
56286;BMP180;42191;47.562;9.686;2023-02-28T11:36:28;97262.00;;;7.90
56286;BMP180;42191;47.562;9.686;2023-02-28T11:38:58;97257.00;;;8.00
56286;BMP180;42191;47.562;9.686;2023-02-28T11:46:53;97269.00;;;8.10
56286;BMP180;42191;47.562;9.686;2023-02-28T11:52:34;97272.00;;;8.30
56286;BMP180;42191;47.562;9.686;2023-02-28T11:55:20;97262.00;;;8.40
56286;BMP180;42191;47.562;9.686;2023-02-28T12:05:56;97261.00;;;8.60
56286;BMP180;42191;47.562;9.686;2023-02-28T12:11:52;97245.00;;;8.80
56286;BMP180;42191;47.562;9.686;2023-02-28T12:14:42;97255.00;;;8.90
56286;BMP180;42191;47.562;9.686;2023-02-28T12:25:37;97239.00;;;9.20
56286;BMP180;42191;47.562;9.686;2023-02-28T12:28:12;97262.00;;;9.20
56286;BMP180;42191;47.562;9.686;2023-02-28T12:30:56;97255.00;;;9.30
56286;BMP180;42191;47.562;9.686;2023-02-28T12:33:30;97259.00;;;9.30
56286;BMP180;42191;47.562;9.686;2023-02-28T12:35:59;97256.00;;;9.30
56286;BMP180;42191;47.562;9.686;2023-02-28T12:38:29;97247.00;;;9.30
56286;BMP180;42191;47.562;9.686;2023-02-28T12:41:06;97243.00;;;9.30
56286;BMP180;42191;47.562;9.686;2023-02-28T12:43:40;97247.00;;;9.40
56286;BMP180;42191;47.562;9.686;2023-02-28T12:46:09;97240.00;;;9.40
56286;BMP180;42191;47.562;9.686;2023-02-28T12:51:17;97234.00;;;9.50
56286;BMP180;42191;47.562;9.686;2023-02-28T12:59:20;97228.00;;;9.50
56286;BMP180;42191;47.562;9.686;2023-02-28T13:02:06;97224.00;;;9.50
56286;BMP180;42191;47.562;9.686;2023-02-28T13:10:44;97231.00;;;9.70
56286;BMP180;42191;47.562;9.686;2023-02-28T13:13:19;97225.00;;;9.80
56286;BMP180;42191;47.562;9.686;2023-02-28T13:18:32;97235.00;;;9.90
56286;BMP180;42191;47.562;9.686;2023-02-28T13:21:00;97232.00;;;9.90
56286;BMP180;42191;47.562;9.686;2023-02-28T13:26:02;97233.00;;;10.00
56286;BMP180;42191;47.562;9.686;2023-02-28T13:31:17;97234.00;;;10.00
56286;BMP180;42191;47.562;9.686;2023-02-28T13:44:21;97243.00;;;9.90
56286;BMP180;42191;47.562;9.686;2023-02-28T13:49:26;97246.00;;;9.90
56286;BMP180;42191;47.562;9.686;2023-02-28T13:52:14;97241.00;;;9.90
56286;BMP180;42191;47.562;9.686;2023-02-28T13:55:11;97240.00;;;9.90
56286;BMP180;42191;47.562;9.686;2023-02-28T14:06:29;97247.00;;;11.20
56286;BMP180;42191;47.562;9.686;2023-02-28T14:09:03;97239.00;;;11.70
56286;BMP180;42191;47.562;9.686;2023-02-28T14:11:41;97245.00;;;12.20
56286;BMP180;42191;47.562;9.686;2023-02-28T14:14:10;97261.00;;;12.70
56286;BMP180;42191;47.562;9.686;2023-02-28T14:16:56;97246.00;;;13.10
56286;BMP180;42191;47.562;9.686;2023-02-28T14:19:26;97252.00;;;13.50
56286;BMP180;42191;47.562;9.686;2023-02-28T14:22:18;97247.00;;;14.00
56286;BMP180;42191;47.562;9.686;2023-02-28T14:24:51;97240.00;;;14.30
56286;BMP180;42191;47.562;9.686;2023-02-28T14:37:53;97255.00;;;15.60
56286;BMP180;42191;47.562;9.686;2023-02-28T14:40:32;97266.00;;;15.90
56286;BMP180;42191;47.562;9.686;2023-02-28T14:43:04;97269.00;;;16.00
56286;BMP180;42191;47.562;9.686;2023-02-28T14:45:34;97261.00;;;16.30
56286;BMP180;42191;47.562;9.686;2023-02-28T14:48:02;97260.00;;;16.40
56286;BMP180;42191;47.562;9.686;2023-02-28T14:50:32;97268.00;;;16.50
56286;BMP180;42191;47.562;9.686;2023-02-28T14:52:59;97267.00;;;16.60
56286;BMP180;42191;47.562;9.686;2023-02-28T14:55:35;97274.00;;;16.80
56286;BMP180;42191;47.562;9.686;2023-02-28T14:58:03;97274.00;;;17.00
56286;BMP180;42191;47.562;9.686;2023-02-28T15:00:36;97277.00;;;17.00
56286;BMP180;42191;47.562;9.686;2023-02-28T15:03:23;97273.00;;;17.10
56286;BMP180;42191;47.562;9.686;2023-02-28T15:05:55;97263.00;;;17.10
56286;BMP180;42191;47.562;9.686;2023-02-28T15:08:23;97283.00;;;17.10
56286;BMP180;42191;47.562;9.686;2023-02-28T15:11:04;97296.00;;;17.00
56286;BMP180;42191;47.562;9.686;2023-02-28T15:13:40;97295.00;;;16.90
56286;BMP180;42191;47.562;9.686;2023-02-28T15:16:13;97297.00;;;16.70
56286;BMP180;42191;47.562;9.686;2023-02-28T15:18:57;97300.00;;;16.70
56286;BMP180;42191;47.562;9.686;2023-02-28T15:21:36;97302.00;;;16.60
56286;BMP180;42191;47.562;9.686;2023-02-28T15:24:08;97306.00;;;16.50
56286;BMP180;42191;47.562;9.686;2023-02-28T15:26:41;97305.00;;;16.40
56286;BMP180;42191;47.562;9.686;2023-02-28T15:29:19;97315.00;;;16.20
56286;BMP180;42191;47.562;9.686;2023-02-28T15:31:49;97305.00;;;16.00
56286;BMP180;42191;47.562;9.686;2023-02-28T15:34:21;97303.00;;;15.70
56286;BMP180;42191;47.562;9.686;2023-02-28T15:36:48;97309.00;;;15.30
56286;BMP180;42191;47.562;9.686;2023-02-28T15:39:26;97313.00;;;14.80
56286;BMP180;42191;47.562;9.686;2023-02-28T15:42:38;97314.00;;;14.30
56286;BMP180;42191;47.562;9.686;2023-02-28T15:44:39;97314.00;;;13.80
56286;BMP180;42191;47.562;9.686;2023-02-28T15:47:14;97326.00;;;13.30
56286;BMP180;42191;47.562;9.686;2023-02-28T15:50:03;97315.00;;;12.80
56286;BMP180;42191;47.562;9.686;2023-02-28T15:55:19;97319.00;;;12.10
56286;BMP180;42191;47.562;9.686;2023-02-28T15:57:49;97324.00;;;11.70
56286;BMP180;42191;47.562;9.686;2023-02-28T16:00:24;97316.00;;;11.40
56286;BMP180;42191;47.562;9.686;2023-02-28T16:02:51;97318.00;;;11.20
56286;BMP180;42191;47.562;9.686;2023-02-28T16:07:47;97308.00;;;10.80
56286;BMP180;42191;47.562;9.686;2023-02-28T16:10:14;97310.00;;;10.60
56286;BMP180;42191;47.562;9.686;2023-02-28T16:12:41;97323.00;;;10.40
56286;BMP180;42191;47.562;9.686;2023-02-28T16:17:46;97323.00;;;10.10
56286;BMP180;42191;47.562;9.686;2023-02-28T16:20:22;97321.00;;;9.90
56286;BMP180;42191;47.562;9.686;2023-02-28T16:22:49;97325.00;;;9.80
56286;BMP180;42191;47.562;9.686;2023-02-28T16:25:17;97322.00;;;9.60
56286;BMP180;42191;47.562;9.686;2023-02-28T16:27:45;97318.00;;;9.50
56286;BMP180;42191;47.562;9.686;2023-02-28T16:30:23;97324.00;;;9.30
56286;BMP180;42191;47.562;9.686;2023-02-28T16:32:51;97328.00;;;9.20
56286;BMP180;42191;47.562;9.686;2023-02-28T16:35:19;97331.00;;;9.10
56286;BMP180;42191;47.562;9.686;2023-02-28T16:37:45;97333.00;;;9.00
56286;BMP180;42191;47.562;9.686;2023-02-28T16:40:17;97331.00;;;8.80
56286;BMP180;42191;47.562;9.686;2023-02-28T16:42:44;97339.00;;;8.70
56286;BMP180;42191;47.562;9.686;2023-02-28T16:45:24;97333.00;;;8.60
56286;BMP180;42191;47.562;9.686;2023-02-28T16:48:01;97335.00;;;8.50
56286;BMP180;42191;47.562;9.686;2023-02-28T16:50:31;97334.00;;;8.40
56286;BMP180;42191;47.562;9.686;2023-02-28T16:53:01;97331.00;;;8.30
56286;BMP180;42191;47.562;9.686;2023-02-28T16:55:27;97337.00;;;8.20
56286;BMP180;42191;47.562;9.686;2023-02-28T16:58:00;97333.00;;;8.10
56286;BMP180;42191;47.562;9.686;2023-02-28T17:00:28;97333.00;;;8.00